Time;durP1;ratioP1;P1;durP2;ratioP2;P2;SDS_P1;SDS_P2;PMS_P1;PMS_P2;Temp;Humidity;BMP_temperature;BMP_pressure;BME280_temperature;BME280_humidity;BME280_pressure;Samples;Min_cycle;Max_cycle;Signal;HPM_P1;HPM_P2
2022/11/25 00:00:01;;;;;;;12.07;2.95;;;10.70;57.30;;;;;;5021305;28;20049;-43
2022/11/25 00:02:28;;;;;;;16.15;3.45;;;10.60;57.40;;;;;;5022644;28;20053;-47
2022/11/25 00:04:56;;;;;;;14.82;2.88;;;10.60;57.40;;;;;;5031203;28;20505;-48
2022/11/25 00:07:23;;;;;;;21.10;3.55;;;10.70;57.90;;;;;;5019817;28;20057;-44
2022/11/25 00:09:50;;;;;;;15.23;3.17;;;10.70;57.50;;;;;;5023430;28;20072;-46
2022/11/25 00:12:18;;;;;;;13.48;3.80;;;10.60;57.40;;;;;;5016749;28;20064;-42
2022/11/25 00:14:45;;;;;;;13.65;2.85;;;10.70;57.50;;;;;;5018111;28;20060;-43
2022/11/25 00:17:14;;;;;;;10.25;2.42;;;10.70;57.50;;;;;;5018490;28;20049;-41
2022/11/25 00:19:41;;;;;;;13.48;3.53;;;10.70;57.50;;;;;;5024793;28;20049;-41
2022/11/25 00:22:08;;;;;;;13.75;3.38;;;10.70;57.50;;;;;;5018817;28;20057;-46
2022/11/25 00:24:35;;;;;;;15.30;3.33;;;10.70;57.50;;;;;;5019262;28;20057;-46
2022/11/25 00:27:03;;;;;;;14.25;3.08;;;10.70;57.60;;;;;;5020368;28;20068;-44
2022/11/25 00:29:31;;;;;;;11.23;3.45;;;10.70;57.60;;;;;;5024018;28;20489;-41
2022/11/25 00:31:58;;;;;;;12.93;3.30;;;10.70;57.70;;;;;;5025066;28;21116;-41
2022/11/25 00:34:27;;;;;;;14.60;3.60;;;10.80;57.80;;;;;;5023339;28;20509;-43
2022/11/25 00:36:55;;;;;;;20.65;3.25;;;10.70;57.80;;;;;;5024339;28;20057;-43
2022/11/25 00:39:23;;;;;;;12.13;2.88;;;10.70;57.80;;;;;;5020228;28;20075;-40
2022/11/25 00:44:35;;;;;;;17.42;2.97;;;10.80;57.80;;;;;;5030279;28;20445;-42
2022/11/25 00:47:03;;;;;;;12.18;2.83;;;10.70;57.80;;;;;;5020697;28;20056;-41
2022/11/25 00:49:32;;;;;;;9.70;2.50;;;10.80;57.90;;;;;;5021281;28;20054;-41
2022/11/25 00:52:00;;;;;;;17.00;3.15;;;10.70;57.90;;;;;;5017714;28;20083;-44
2022/11/25 00:54:27;;;;;;;9.43;2.88;;;10.80;58.00;;;;;;5024707;28;20053;-41
2022/11/25 00:56:55;;;;;;;10.73;2.80;;;10.80;58.00;;;;;;5019628;28;20082;-42
2022/11/25 00:59:22;;;;;;;13.68;2.70;;;10.80;58.00;;;;;;5037177;28;20061;-40
2022/11/25 01:01:49;;;;;;;10.23;2.53;;;10.80;58.00;;;;;;5020251;28;20060;-42
2022/11/25 01:04:17;;;;;;;21.80;4.57;;;10.80;58.00;;;;;;5019431;28;20060;-41
2022/11/25 01:06:45;;;;;;;12.07;2.95;;;10.80;58.00;;;;;;5022454;28;20489;-41
2022/11/25 01:09:13;;;;;;;12.73;2.92;;;10.80;58.00;;;;;;5020294;28;20049;-44
2022/11/25 01:11:40;;;;;;;14.63;2.90;;;10.80;57.90;;;;;;5018807;28;20053;-41
2022/11/25 01:14:08;;;;;;;11.10;2.80;;;10.80;57.90;;;;;;5022376;28;20497;-40
2022/11/25 01:16:36;;;;;;;12.07;2.55;;;10.90;57.90;;;;;;5019740;28;20061;-42
2022/11/25 01:19:03;;;;;;;9.70;3.20;;;10.90;57.80;;;;;;5016611;28;20490;-43
2022/11/25 01:21:33;;;;;;;10.57;2.45;;;10.90;57.80;;;;;;5015933;28;20489;-44
2022/11/25 01:24:03;;;;;;;9.25;2.78;;;10.90;57.80;;;;;;5024581;28;20061;-44
2022/11/25 01:26:32;;;;;;;12.55;2.47;;;10.90;57.70;;;;;;5019689;28;20474;-42
2022/11/25 01:29:01;;;;;;;9.68;2.50;;;10.90;57.70;;;;;;5019853;28;20057;-41
2022/11/25 01:31:30;;;;;;;14.70;3.05;;;10.90;58.20;;;;;;5014093;28;20057;-42
2022/11/25 01:34:00;;;;;;;10.60;2.50;;;10.90;57.70;;;;;;5018024;28;20060;-44
2022/11/25 01:36:28;;;;;;;11.40;3.72;;;10.90;57.70;;;;;;5018788;28;20061;-41
2022/11/25 01:38:57;;;;;;;10.00;2.85;;;10.90;57.70;;;;;;5019268;28;20072;-41
2022/11/25 01:41:28;;;;;;;13.80;2.90;;;10.90;57.70;;;;;;5020452;28;20049;-41
2022/11/25 01:44:11;;;;;;;15.52;2.88;;;10.90;57.70;;;;;;5015554;28;20054;-44
2022/11/25 01:46:53;;;;;;;11.93;3.05;;;10.90;57.80;;;;;;5018163;28;20512;-47
2022/11/25 01:49:26;;;;;;;16.20;2.55;;;11.00;57.80;;;;;;5017570;28;20049;-47
2022/11/25 01:51:59;;;;;;;15.70;2.83;;;11.00;57.90;;;;;;5019157;28;20509;-41
2022/11/25 01:54:31;;;;;;;16.42;3.08;;;11.00;57.90;;;;;;5019315;28;20466;-41
2022/11/25 01:57:03;;;;;;;10.55;2.42;;;11.00;58.00;;;;;;5019330;28;20837;-41
2022/11/25 01:59:35;;;;;;;12.48;2.90;;;11.00;58.10;;;;;;5023931;28;20049;-41
2022/11/25 02:02:02;;;;;;;12.20;2.75;;;11.00;58.20;;;;;;5022129;28;20053;-44
2022/11/25 02:04:34;;;;;;;14.98;3.75;;;11.00;58.30;;;;;;5024099;28;20069;-42
2022/11/25 02:07:07;;;;;;;11.40;2.95;;;11.00;58.50;;;;;;5020982;28;20053;-43
2022/11/25 02:09:38;;;;;;;12.23;3.25;;;11.00;58.60;;;;;;5021466;28;20050;-40
2022/11/25 02:12:08;;;;;;;15.80;3.00;;;11.10;58.70;;;;;;5022130;28;20417;-41
2022/11/25 02:14:35;;;;;;;22.90;3.42;;;11.10;58.80;;;;;;5028620;28;20057;-44
2022/11/25 02:17:02;;;;;;;19.40;3.63;;;11.10;58.80;;;;;;5027953;28;20485;-42
2022/11/25 02:19:45;;;;;;;13.38;3.13;;;11.10;58.90;;;;;;5024911;28;20788;-45
2022/11/25 02:22:23;;;;;;;14.80;2.67;;;11.10;58.90;;;;;;5023206;28;20112;-42
2022/11/25 02:24:54;;;;;;;14.88;2.90;;;11.20;58.90;;;;;;5024928;28;20674;-42
2022/11/25 02:27:23;;;;;;;10.00;2.30;;;11.20;58.80;;;;;;5021994;28;20053;-45
2022/11/25 02:29:52;;;;;;;15.85;2.28;;;11.20;58.80;;;;;;5023301;28;20080;-44
2022/11/25 02:32:22;;;;;;;11.13;2.67;;;11.20;58.70;;;;;;5024130;28;20057;-42
2022/11/25 02:34:49;;;;;;;12.52;3.10;;;11.20;58.70;;;;;;5024594;28;20057;-46
2022/11/25 02:37:20;;;;;;;8.45;2.67;;;11.30;58.70;;;;;;5018786;28;20409;-42
2022/11/25 02:39:49;;;;;;;11.02;2.65;;;11.30;58.70;;;;;;5021314;28;20064;-42
2022/11/25 02:42:20;;;;;;;7.90;2.67;;;11.30;58.60;;;;;;5017218;28;20064;-45
2022/11/25 02:44:49;;;;;;;15.52;3.20;;;11.30;58.60;;;;;;5026860;28;20056;-42
2022/11/25 02:47:17;;;;;;;11.57;2.30;;;11.30;58.50;;;;;;5028627;28;20060;-41
2022/11/25 02:49:44;;;;;;;14.25;3.13;;;11.30;58.40;;;;;;5023642;28;20053;-42
2022/11/25 02:52:12;;;;;;;12.85;3.20;;;11.40;58.50;;;;;;5025058;28;20053;-41
2022/11/25 02:54:40;;;;;;;16.92;3.10;;;11.40;58.40;;;;;;5021283;28;20061;-43
2022/11/25 02:57:07;;;;;;;20.95;3.03;;;11.40;58.40;;;;;;5023166;28;20057;-43
2022/11/25 02:59:34;;;;;;;13.73;3.35;;;11.40;58.40;;;;;;5024508;28;20405;-42
2022/11/25 03:02:03;;;;;;;14.68;2.50;;;11.40;58.30;;;;;;5025774;28;20053;-47
2022/11/25 03:04:30;;;;;;;16.02;2.97;;;11.40;58.30;;;;;;5024496;28;20662;-43
2022/11/25 03:06:57;;;;;;;13.43;2.80;;;11.40;58.30;;;;;;5018510;28;20049;-42
2022/11/25 03:09:25;;;;;;;16.58;2.92;;;11.40;58.30;;;;;;5023748;28;20062;-41
2022/11/25 03:14:36;;;;;;;11.30;2.42;;;11.40;58.30;;;;;;5029713;28;20060;-41
2022/11/25 03:17:05;;;;;;;12.93;2.65;;;11.40;58.20;;;;;;5021130;28;20514;-42
2022/11/25 03:19:32;;;;;;;12.13;2.72;;;11.40;58.20;;;;;;5020068;28;20064;-44
2022/11/25 03:21:59;;;;;;;11.63;2.50;;;11.40;58.10;;;;;;5025448;28;20061;-44
2022/11/25 03:24:27;;;;;;;13.68;2.50;;;11.40;58.10;;;;;;5024241;28;20049;-46
2022/11/25 03:26:54;;;;;;;18.45;3.22;;;11.50;58.20;;;;;;5023156;28;20053;-42
2022/11/25 03:29:21;;;;;;;8.85;2.47;;;11.50;58.20;;;;;;5020722;28;20057;-43
2022/11/25 03:31:48;;;;;;;10.77;2.20;;;11.40;58.10;;;;;;5024133;28;20421;-43
2022/11/25 03:34:17;;;;;;;12.13;2.58;;;11.50;58.10;;;;;;5031064;28;20053;-45
2022/11/25 03:36:44;;;;;;;12.85;2.90;;;11.50;58.10;;;;;;5025653;28;20051;-44
2022/11/25 03:39:11;;;;;;;16.40;2.85;;;11.50;58.00;;;;;;5018711;28;20912;-45
2022/11/25 03:41:38;;;;;;;16.73;3.85;;;11.50;58.00;;;;;;5019660;28;20057;-42
2022/11/25 03:44:06;;;;;;;18.08;3.10;;;11.50;58.00;;;;;;5021330;28;20057;-41
2022/11/25 03:46:33;;;;;;;7.68;2.28;;;11.50;57.90;;;;;;5020505;28;20057;-49
2022/11/25 03:49:00;;;;;;;11.40;2.70;;;11.50;57.90;;;;;;5030417;28;20064;-41
2022/11/25 03:51:29;;;;;;;13.77;3.00;;;11.50;57.90;;;;;;5023456;28;20093;-52
2022/11/25 03:53:56;;;;;;;9.27;2.55;;;11.50;57.90;;;;;;5022744;28;20064;-52
2022/11/25 03:56:23;;;;;;;7.50;2.08;;;11.50;57.90;;;;;;5024323;28;20044;-51
2022/11/25 03:58:51;;;;;;;15.07;2.72;;;11.50;57.90;;;;;;5021732;28;20053;-52
2022/11/25 04:01:18;;;;;;;8.15;2.25;;;11.50;57.80;;;;;;5021923;28;20056;-49
2022/11/25 04:03:45;;;;;;;10.60;2.50;;;11.50;57.80;;;;;;5021730;28;20054;-51
2022/11/25 04:06:12;;;;;;;10.52;2.38;;;11.60;57.80;;;;;;5023029;28;20505;-53
2022/11/25 04:08:41;;;;;;;11.20;2.70;;;11.50;57.70;;;;;;5025284;28;20057;-53
2022/11/25 04:11:08;;;;;;;9.57;2.75;;;11.60;57.80;;;;;;5014508;28;20079;-51
2022/11/25 04:13:34;;;;;;;12.55;2.78;;;11.50;57.70;;;;;;5025235;28;20048;-48
2022/11/25 04:16:01;;;;;;;10.20;2.33;;;11.50;57.70;;;;;;5018265;28;20056;-52
2022/11/25 04:18:29;;;;;;;10.80;2.80;;;11.50;57.70;;;;;;5013182;28;20548;-51
2022/11/25 04:20:56;;;;;;;8.80;2.83;;;11.60;57.80;;;;;;5016190;28;20050;-53
2022/11/25 04:23:24;;;;;;;9.57;2.55;;;11.60;57.80;;;;;;5014814;28;20064;-51
2022/11/25 04:25:53;;;;;;;22.90;7.57;;;11.60;57.80;;;;;;5015026;28;20053;-52
2022/11/25 04:28:20;;;;;;;18.08;4.65;;;11.60;57.80;;;;;;5020703;28;20065;-47
2022/11/25 04:30:47;;;;;;;12.90;2.90;;;11.60;57.80;;;;;;5018855;28;20064;-46
2022/11/25 04:33:14;;;;;;;12.75;3.15;;;11.60;57.70;;;;;;5017123;28;20409;-52
2022/11/25 04:35:41;;;;;;;10.95;2.95;;;11.60;57.70;;;;;;5015571;28;20057;-50
2022/11/25 04:38:09;;;;;;;12.45;3.05;;;11.60;57.70;;;;;;5019628;28;20053;-48
2022/11/25 04:40:36;;;;;;;10.65;3.20;;;11.60;57.70;;;;;;5018211;28;20050;-53
2022/11/25 04:43:04;;;;;;;8.40;2.55;;;11.60;57.70;;;;;;5042809;28;20504;-53
2022/11/25 04:45:32;;;;;;;13.38;3.33;;;11.60;57.70;;;;;;5022785;28;20049;-53
2022/11/25 04:47:59;;;;;;;12.23;2.90;;;11.60;57.70;;;;;;5033526;28;20413;-52
2022/11/25 04:50:26;;;;;;;12.15;2.83;;;11.60;57.70;;;;;;5022148;28;20056;-52
2022/11/25 04:52:53;;;;;;;15.75;2.47;;;11.60;57.70;;;;;;5019349;28;20057;-52
2022/11/25 04:55:21;;;;;;;14.05;3.53;;;11.60;57.80;;;;;;5018363;28;20064;-51
2022/11/25 04:57:48;;;;;;;13.05;2.95;;;11.60;57.80;;;;;;5021084;28;20045;-51
2022/11/25 05:00:17;;;;;;;15.85;2.80;;;11.60;57.90;;;;;;5026653;28;20054;-53
2022/11/25 05:02:44;;;;;;;13.68;3.40;;;11.60;57.90;;;;;;4998977;28;20050;-50
2022/11/25 05:05:11;;;;;;;10.30;2.50;;;11.60;58.00;;;;;;4959608;28;20074;-50
2022/11/25 05:07:38;;;;;;;29.63;9.95;;;11.60;58.10;;;;;;4952980;28;20431;-47
2022/11/25 05:10:07;;;;;;;31.90;12.05;;;11.60;58.10;;;;;;4958378;28;20055;-53
2022/11/25 05:12:35;;;;;;;22.83;7.07;;;11.70;58.20;;;;;;4956192;28;20065;-52
2022/11/25 05:15:03;;;;;;;20.17;5.72;;;11.70;58.20;;;;;;4957098;28;20054;-51
2022/11/25 05:17:32;;;;;;;21.20;6.53;;;11.70;58.20;;;;;;4952601;28;20055;-53
2022/11/25 05:20:00;;;;;;;19.13;4.70;;;11.70;58.20;;;;;;4956835;28;20070;-51
2022/11/25 05:22:29;;;;;;;13.60;3.25;;;11.70;58.20;;;;;;4957555;28;20065;-49
2022/11/25 05:24:56;;;;;;;12.32;2.92;;;11.70;58.30;;;;;;4957817;28;20493;-53
2022/11/25 05:27:24;;;;;;;11.05;2.67;;;11.70;58.20;;;;;;4959931;28;20047;-53
2022/11/25 05:29:52;;;;;;;8.65;2.28;;;11.70;58.30;;;;;;4960059;28;20058;-48
2022/11/25 05:32:19;;;;;;;52.30;18.17;;;11.70;58.30;;;;;;4961629;28;20058;-52
2022/11/25 05:34:48;;;;;;;36.50;13.05;;;11.70;58.30;;;;;;4960942;28;20053;-52
2022/11/25 05:37:15;;;;;;;16.70;5.45;;;11.70;58.30;;;;;;4963244;28;20047;-53
2022/11/25 05:39:42;;;;;;;9.00;2.88;;;11.70;58.30;;;;;;4960421;28;20058;-53
2022/11/25 05:42:09;;;;;;;8.32;2.83;;;11.80;58.40;;;;;;4963789;28;20059;-52
2022/11/25 05:44:36;;;;;;;7.75;2.45;;;11.80;58.40;;;;;;4964035;28;20050;-52
2022/11/25 05:47:04;;;;;;;14.23;3.03;;;11.80;58.40;;;;;;4965314;28;20404;-53
2022/11/25 05:49:31;;;;;;;9.32;2.63;;;11.80;58.40;;;;;;4960412;28;20061;-52
2022/11/25 05:52:00;;;;;;;12.05;2.60;;;11.80;58.40;;;;;;4958759;28;20051;-53
2022/11/25 05:54:28;;;;;;;8.98;2.15;;;11.80;58.50;;;;;;4964533;28;20054;-53
2022/11/25 05:56:55;;;;;;;7.72;2.53;;;11.80;58.50;;;;;;4965693;28;20055;-49
2022/11/25 05:59:23;;;;;;;9.82;2.28;;;11.80;58.40;;;;;;4964660;28;20058;-53
2022/11/25 06:01:52;;;;;;;10.23;2.95;;;11.80;58.50;;;;;;4967604;28;20055;-53
2022/11/25 06:04:20;;;;;;;34.42;11.65;;;11.80;58.50;;;;;;4964724;28;20055;-54
2022/11/25 06:06:47;;;;;;;43.85;16.63;;;11.80;58.50;;;;;;4964528;28;20055;-54
2022/11/25 06:09:15;;;;;;;24.02;9.43;;;11.80;58.40;;;;;;4965043;28;20058;-54
2022/11/25 06:11:42;;;;;;;15.65;4.93;;;11.80;58.50;;;;;;4966735;28;20051;-53
2022/11/25 06:14:10;;;;;;;12.38;2.78;;;11.80;58.50;;;;;;4967932;28;20065;-52
2022/11/25 06:16:37;;;;;;;9.82;2.55;;;11.80;58.50;;;;;;4965717;28;20051;-53
2022/11/25 06:19:05;;;;;;;11.90;3.67;;;11.80;58.60;;;;;;4959274;28;20054;-54
2022/11/25 06:21:32;;;;;;;11.13;2.58;;;11.80;58.60;;;;;;4962009;28;20062;-53
2022/11/25 06:24:00;;;;;;;9.25;2.40;;;11.80;58.60;;;;;;4964479;28;20059;-53
2022/11/25 06:26:30;;;;;;;8.80;2.60;;;11.80;58.60;;;;;;4964833;28;20059;-53
2022/11/25 06:28:57;;;;;;;11.05;2.30;;;11.80;58.60;;;;;;4967365;28;20066;-54
2022/11/25 06:31:25;;;;;;;7.78;2.40;;;11.80;58.60;;;;;;4963850;28;20051;-53
2022/11/25 06:33:53;;;;;;;10.13;2.45;;;11.80;58.70;;;;;;4965175;28;20050;-53
2022/11/25 06:36:22;;;;;;;9.95;2.40;;;11.80;58.70;;;;;;4964101;28;20419;-53
2022/11/25 06:38:51;;;;;;;8.60;2.22;;;11.80;58.70;;;;;;4963967;28;20085;-54
2022/11/25 06:41:19;;;;;;;12.05;2.90;;;11.80;58.70;;;;;;4964775;28;20483;-54
2022/11/25 06:43:47;;;;;;;10.88;2.13;;;11.80;58.70;;;;;;4964894;28;20059;-54
2022/11/25 06:46:17;;;;;;;11.05;2.63;;;11.80;58.80;;;;;;4963986;28;20062;-53
2022/11/25 06:48:44;;;;;;;16.85;3.08;;;11.80;58.80;;;;;;4962846;28;20054;-52
2022/11/25 06:51:16;;;;;;;9.55;2.58;;;11.80;58.80;;;;;;4963942;28;20050;-53
2022/11/25 06:53:44;;;;;;;8.50;2.40;;;11.80;59.30;;;;;;4964954;28;20064;-53
2022/11/25 06:56:13;;;;;;;17.63;3.88;;;11.80;58.80;;;;;;4966956;28;21074;-52
2022/11/25 06:58:41;;;;;;;8.05;2.40;;;11.80;58.80;;;;;;4966959;28;20476;-50
2022/11/25 07:01:13;;;;;;;7.47;2.63;;;11.80;58.80;;;;;;4963216;28;20054;-53
2022/11/25 07:03:41;;;;;;;10.63;2.88;;;11.70;58.80;;;;;;4964314;28;20430;-47
2022/11/25 07:06:08;;;;;;;9.60;2.83;;;11.70;58.80;;;;;;4963413;28;20065;-53
2022/11/25 07:08:37;;;;;;;10.15;2.63;;;11.80;58.90;;;;;;4965288;28;20054;-49
2022/11/25 07:11:06;;;;;;;9.60;2.53;;;11.80;58.90;;;;;;4964866;28;20554;-53
2022/11/25 07:13:34;;;;;;;9.00;2.88;;;11.80;58.90;;;;;;4964772;28;20058;-47
2022/11/25 07:16:02;;;;;;;11.30;3.00;;;11.80;58.90;;;;;;4956710;28;20107;-52
2022/11/25 07:18:32;;;;;;;12.88;3.63;;;11.80;58.90;;;;;;4963728;28;20055;-51
2022/11/25 07:21:05;;;;;;;8.85;2.30;;;11.80;58.90;;;;;;4963543;28;20058;-54
2022/11/25 07:23:33;;;;;;;9.93;2.47;;;11.80;58.90;;;;;;4963759;28;20062;-53
2022/11/25 07:26:05;;;;;;;9.25;2.70;;;11.80;58.90;;;;;;4964431;28;20411;-53
2022/11/25 07:28:32;;;;;;;7.22;2.45;;;11.70;59.00;;;;;;4964652;28;20061;-54
2022/11/25 07:31:05;;;;;;;9.80;2.15;;;11.80;59.00;;;;;;4963785;28;20058;-54
2022/11/25 07:33:34;;;;;;;8.52;2.47;;;11.80;59.10;;;;;;4964046;28;20054;-54
2022/11/25 07:36:03;;;;;;;7.45;2.10;;;11.70;59.00;;;;;;4964436;28;20058;-51
2022/11/25 07:38:31;;;;;;;6.93;2.13;;;11.80;59.10;;;;;;4960291;28;21017;-53
2022/11/25 07:41:04;;;;;;;9.73;2.60;;;11.80;59.10;;;;;;4964234;28;20054;-55
2022/11/25 07:43:31;;;;;;;7.05;2.28;;;11.80;59.20;;;;;;4964533;28;20081;-53
2022/11/25 07:46:11;;;;;;;8.18;2.38;;;11.80;59.10;;;;;;4963892;28;20047;-53
2022/11/25 07:48:41;;;;;;;10.02;3.25;;;11.80;59.10;;;;;;4965380;28;20058;-53
2022/11/25 07:51:15;;;;;;;8.07;2.58;;;11.80;59.00;;;;;;4962925;28;20058;-51
2022/11/25 07:53:43;;;;;;;9.68;3.08;;;11.80;58.90;;;;;;4963922;28;20050;-51
2022/11/25 07:56:10;;;;;;;9.48;3.00;;;11.80;58.90;;;;;;4959266;28;20066;-54
2022/11/25 07:58:38;;;;;;;8.55;2.50;;;11.80;58.90;;;;;;4965451;28;20054;-52
2022/11/25 08:01:07;;;;;;;15.27;3.10;;;11.70;58.80;;;;;;4960949;28;20081;-54
2022/11/25 08:03:35;;;;;;;9.95;3.17;;;11.70;58.80;;;;;;4958432;28;20046;-54
2022/11/25 08:06:04;;;;;;;6.78;2.72;;;11.80;58.80;;;;;;4961377;28;20066;-53
2022/11/25 08:08:32;;;;;;;8.18;2.63;;;11.70;58.70;;;;;;4962374;28;21029;-53
2022/11/25 08:10:59;;;;;;;9.75;2.80;;;11.70;58.70;;;;;;4959138;28;20059;-51
2022/11/25 08:13:27;;;;;;;10.70;2.95;;;11.70;58.70;;;;;;4961351;28;20499;-54
2022/11/25 08:15:54;;;;;;;8.27;2.75;;;11.70;58.70;;;;;;4964033;28;20427;-53
2022/11/25 08:18:21;;;;;;;12.77;3.20;;;11.60;59.20;;;;;;4963644;28;20055;-47
2022/11/25 08:20:49;;;;;;;11.27;2.83;;;11.60;58.80;;;;;;4961443;28;20050;-46
2022/11/25 08:23:17;;;;;;;9.82;2.45;;;11.60;58.80;;;;;;4963414;28;20055;-49
2022/11/25 08:25:44;;;;;;;9.65;2.88;;;11.60;58.90;;;;;;4963427;28;20055;-53
2022/11/25 08:28:12;;;;;;;9.30;2.65;;;11.60;59.00;;;;;;4964755;28;20055;-52
2022/11/25 08:30:39;;;;;;;9.73;2.55;;;11.60;59.10;;;;;;4964112;28;20055;-52
2022/11/25 08:33:06;;;;;;;10.02;2.80;;;11.60;59.20;;;;;;4965196;28;20054;-52
2022/11/25 08:35:36;;;;;;;10.85;2.63;;;11.60;59.30;;;;;;4964673;28;20055;-54
2022/11/25 08:38:04;;;;;;;8.57;2.88;;;11.60;59.30;;;;;;4961882;28;20509;-54
2022/11/25 08:40:34;;;;;;;6.32;2.55;;;11.60;59.40;;;;;;4965113;28;20395;-52
2022/11/25 08:43:01;;;;;;;7.45;2.42;;;11.60;59.50;;;;;;4963504;28;20075;-53
2022/11/25 08:45:29;;;;;;;6.80;2.63;;;11.60;59.50;;;;;;4964766;28;20054;-46
2022/11/25 08:47:57;;;;;;;8.90;2.60;;;11.70;59.60;;;;;;4964162;28;20475;-53
2022/11/25 08:50:25;;;;;;;11.20;2.28;;;11.70;59.60;;;;;;4964546;28;20536;-53
2022/11/25 08:52:52;;;;;;;8.23;2.33;;;11.70;59.60;;;;;;4963035;28;20058;-53
2022/11/25 08:55:20;;;;;;;8.73;2.95;;;11.70;59.70;;;;;;4959242;28;20054;-54
2022/11/25 08:57:49;;;;;;;12.52;3.33;;;11.70;59.80;;;;;;4959635;28;20997;-53
2022/11/25 09:00:17;;;;;;;5.93;2.20;;;11.70;59.90;;;;;;4960403;28;20113;-51
2022/11/25 09:02:44;;;;;;;12.35;3.38;;;11.80;59.90;;;;;;4963615;28;20063;-54
2022/11/25 09:05:13;;;;;;;10.43;3.15;;;11.80;59.90;;;;;;4962865;28;20050;-53
2022/11/25 09:07:40;;;;;;;10.77;2.95;;;11.80;60.20;;;;;;4964395;28;20499;-54
2022/11/25 09:10:12;;;;;;;9.25;2.72;;;11.80;60.50;;;;;;4958175;28;20051;-51
2022/11/25 09:12:40;;;;;;;7.13;2.58;;;11.80;60.70;;;;;;4961978;28;20050;-52
2022/11/25 09:15:10;;;;;;;7.90;2.65;;;11.90;60.80;;;;;;4968246;28;20051;-52
2022/11/25 09:17:37;;;;;;;5.53;2.35;;;11.90;61.00;;;;;;4966115;28;20054;-52
2022/11/25 09:20:06;;;;;;;6.65;2.03;;;12.00;61.00;;;;;;4967531;28;20061;-50
2022/11/25 09:22:33;;;;;;;8.93;2.75;;;12.00;61.20;;;;;;4965195;28;20054;-50
2022/11/25 09:25:00;;;;;;;8.50;2.28;;;12.10;61.20;;;;;;4967361;28;20062;-53
2022/11/25 09:27:28;;;;;;;7.63;2.10;;;12.10;61.20;;;;;;4965949;28;20062;-51
2022/11/25 09:29:55;;;;;;;9.13;2.42;;;12.10;61.20;;;;;;4963938;28;20063;-50
2022/11/25 09:32:23;;;;;;;12.90;2.15;;;12.10;61.30;;;;;;4964424;28;20126;-53
2022/11/25 09:34:50;;;;;;;9.80;2.53;;;12.20;61.40;;;;;;4966298;28;20525;-54
2022/11/25 09:37:18;;;;;;;8.35;2.75;;;12.20;61.30;;;;;;4962674;28;20063;-53
2022/11/25 09:39:45;;;;;;;7.53;2.42;;;12.20;61.30;;;;;;4961154;28;20046;-53
2022/11/25 09:48:15;;;;;;;8.68;2.47;;;12.30;61.30;;;;;;4968833;28;19925;-48
2022/11/25 09:50:55;;;;;;;6.45;2.45;;;12.40;61.10;;;;;;4963903;28;20135;-53
2022/11/25 09:53:37;;;;;;;6.35;2.25;;;12.40;61.20;;;;;;4963445;28;20422;-53
2022/11/25 09:56:14;;;;;;;11.60;2.53;;;12.40;62.00;;;;;;4967973;28;20061;-53
2022/11/25 09:58:47;;;;;;;7.55;2.55;;;12.40;61.30;;;;;;4967038;28;20062;-54
2022/11/25 10:01:18;;;;;;;7.30;2.33;;;12.40;61.30;;;;;;4965910;28;20057;-52
2022/11/25 10:03:52;;;;;;;8.40;2.40;;;12.50;61.40;;;;;;4965599;28;20411;-51
2022/11/25 10:06:23;;;;;;;8.52;2.67;;;12.50;61.50;;;;;;4964899;28;21350;-53
2022/11/25 10:08:52;;;;;;;6.63;2.00;;;12.50;61.40;;;;;;4961203;28;20061;-50
2022/11/25 10:11:41;;;;;;;8.30;1.40;;;12.50;61.40;;;;;;4963148;28;20065;-53
2022/11/25 10:14:16;;;;;;;4.47;1.65;;;12.50;61.50;;;;;;4967442;28;20419;-53
2022/11/25 10:16:51;;;;;;;7.43;1.60;;;12.50;61.30;;;;;;4965228;28;20046;-47
2022/11/25 10:19:31;;;;;;;10.27;1.85;;;12.60;61.20;;;;;;4966558;28;20055;-53
2022/11/25 10:22:00;;;;;;;8.70;1.67;;;12.60;61.10;;;;;;4959859;28;20510;-50
2022/11/25 10:24:27;;;;;;;7.25;1.45;;;12.60;60.90;;;;;;4964666;28;20073;-52
2022/11/25 10:26:59;;;;;;;3.85;1.30;;;12.60;60.90;;;;;;4963187;28;20054;-53
2022/11/25 10:29:30;;;;;;;7.68;1.80;;;12.60;60.90;;;;;;4965261;28;20051;-52
2022/11/25 10:32:11;;;;;;;6.18;1.58;;;12.60;60.80;;;;;;4966859;28;20066;-51
2022/11/25 10:34:45;;;;;;;3.42;1.48;;;12.70;60.80;;;;;;4962426;28;20059;-53
2022/11/25 10:37:18;;;;;;;9.55;1.90;;;12.70;60.80;;;;;;4967245;28;20065;-53
2022/11/25 10:39:45;;;;;;;5.32;1.90;;;12.70;60.80;;;;;;4965863;28;20054;-53
2022/11/25 10:42:18;;;;;;;3.03;1.23;;;12.70;60.70;;;;;;4957970;28;20511;-52
2022/11/25 10:44:46;;;;;;;7.70;2.33;;;12.80;60.60;;;;;;4960999;28;20058;-52
2022/11/25 10:47:25;;;;;;;6.50;1.50;;;12.80;60.60;;;;;;4962715;28;20062;-53
2022/11/25 10:50:08;;;;;;;10.80;1.60;;;12.80;60.60;;;;;;4955968;28;20063;-53
2022/11/25 10:52:39;;;;;;;7.38;1.80;;;12.90;60.50;;;;;;4958456;28;20062;-50
2022/11/25 10:55:12;;;;;;;6.65;2.20;;;12.90;60.50;;;;;;4960599;28;20491;-52
2022/11/25 10:57:40;;;;;;;4.50;1.73;;;12.90;60.40;;;;;;4958810;28;20058;-50
2022/11/25 11:00:24;;;;;;;6.50;1.77;;;12.90;60.30;;;;;;4955252;28;20046;-52
2022/11/25 11:02:51;;;;;;;3.65;1.30;;;13.00;60.20;;;;;;4962889;28;20388;-51
2022/11/25 11:05:24;;;;;;;5.28;1.67;;;13.00;60.10;;;;;;4964979;28;20415;-53
2022/11/25 11:08:15;;;;;;;7.93;1.80;;;13.00;60.00;;;;;;4958455;28;20741;-51
2022/11/25 11:10:42;;;;;;;6.15;1.77;;;13.00;59.80;;;;;;4963138;28;20439;-53
2022/11/25 11:13:24;;;;;;;6.22;1.80;;;13.00;59.80;;;;;;4960521;28;20062;-46
2022/11/25 11:15:52;;;;;;;7.60;1.73;;;13.10;59.80;;;;;;4961728;28;20061;-53
2022/11/25 11:18:25;;;;;;;5.30;1.58;;;13.10;59.90;;;;;;4960812;28;20058;-52
2022/11/25 11:20:55;;;;;;;9.50;1.55;;;13.10;59.90;;;;;;4961507;28;20053;-50
2022/11/25 11:23:24;;;;;;;5.93;2.08;;;13.20;60.00;;;;;;4955170;28;20060;-48
2022/11/25 11:25:59;;;;;;;8.85;1.77;;;13.20;59.90;;;;;;4958385;28;20054;-51
2022/11/25 11:28:31;;;;;;;10.73;2.25;;;13.20;59.80;;;;;;4959921;28;20047;-52
2022/11/25 11:31:02;;;;;;;6.22;1.63;;;13.30;59.90;;;;;;4958585;28;20058;-52
2022/11/25 11:33:35;;;;;;;5.18;1.75;;;13.40;59.90;;;;;;4963297;28;20055;-52
2022/11/25 11:36:21;;;;;;;4.93;1.90;;;13.40;59.80;;;;;;4961823;28;20483;-52
2022/11/25 11:38:54;;;;;;;6.55;1.70;;;13.50;59.80;;;;;;4956710;28;20055;-52
2022/11/25 11:41:35;;;;;;;7.72;2.15;;;13.50;59.60;;;;;;4962877;28;20123;-53
2022/11/25 11:44:16;;;;;;;10.98;2.25;;;13.60;59.40;;;;;;4964203;28;20061;-52
2022/11/25 11:46:59;;;;;;;8.15;1.95;;;13.60;59.20;;;;;;4958538;28;20062;-53
2022/11/25 11:49:50;;;;;;;11.65;1.83;;;13.70;59.20;;;;;;4962818;28;20050;-52
2022/11/25 11:52:30;;;;;;;10.20;2.50;;;13.70;58.90;;;;;;4959017;28;20047;-52
2022/11/25 11:55:02;;;;;;;7.82;1.88;;;13.70;58.70;;;;;;4963710;28;20054;-53
2022/11/25 11:57:39;;;;;;;11.75;2.20;;;13.80;58.50;;;;;;4963315;28;20054;-47
2022/11/25 12:00:11;;;;;;;13.90;2.30;;;13.80;58.20;;;;;;4963618;28;20058;-53
2022/11/25 12:02:53;;;;;;;8.85;1.77;;;13.80;58.00;;;;;;4958884;28;20058;-45
2022/11/25 12:05:25;;;;;;;11.32;2.17;;;13.80;57.70;;;;;;4960008;28;20059;-52
2022/11/25 12:08:06;;;;;;;10.90;1.90;;;13.80;57.50;;;;;;4925676;28;20056;-51
2022/11/25 12:10:37;;;;;;;10.27;2.00;;;13.90;57.40;;;;;;4986276;28;20406;-50
2022/11/25 12:13:13;;;;;;;16.13;2.72;;;13.90;58.00;;;;;;4991097;28;20120;-52
2022/11/25 12:15:46;;;;;;;10.82;2.28;;;13.90;57.40;;;;;;4997348;28;20046;-51
2022/11/25 12:18:26;;;;;;;11.60;2.13;;;13.90;57.20;;;;;;4995969;28;20054;-50
2022/11/25 12:21:00;;;;;;;12.75;1.98;;;13.90;56.90;;;;;;4987817;28;20046;-51
2022/11/25 12:23:38;;;;;;;13.10;2.10;;;13.90;56.80;;;;;;4990771;28;20054;-45
2022/11/25 12:26:12;;;;;;;17.15;2.17;;;13.90;56.70;;;;;;4989461;28;20054;-53
2022/11/25 12:28:45;;;;;;;11.40;2.17;;;14.00;56.50;;;;;;4983081;28;20058;-51
2022/11/25 12:31:18;;;;;;;9.35;2.13;;;14.00;56.30;;;;;;4981743;28;20065;-52
2022/11/25 12:33:55;;;;;;;8.73;2.55;;;14.00;56.20;;;;;;4984085;28;20050;-53
2022/11/25 12:36:30;;;;;;;11.77;2.10;;;14.00;56.30;;;;;;4989807;28;20049;-52
2022/11/25 12:39:04;;;;;;;18.33;2.58;;;14.00;56.20;;;;;;4984710;28;20053;-53
2022/11/25 12:41:41;;;;;;;10.57;2.22;;;14.00;55.90;;;;;;4997648;28;20061;-46
2022/11/25 12:44:16;;;;;;;15.73;2.63;;;14.10;55.90;;;;;;4994323;28;20057;-52
2022/11/25 12:46:46;;;;;;;10.32;2.00;;;14.10;55.50;;;;;;4987886;28;20047;-53
2022/11/25 12:49:18;;;;;;;14.30;2.50;;;14.10;55.60;;;;;;5000084;28;20062;-51
2022/11/25 12:52:16;;;;;;;9.80;1.80;;;14.10;55.50;;;;;;4990932;28;20050;-52
2022/11/25 12:55:08;;;;;;;10.48;2.03;;;14.10;55.40;;;;;;4988132;28;20390;-50
2022/11/25 12:58:11;;;;;;;12.10;2.05;;;14.20;55.50;;;;;;4999051;28;20069;-50
2022/11/25 13:01:05;;;;;;;12.68;2.08;;;14.20;55.30;;;;;;4995255;28;20046;-47
2022/11/25 13:04:10;;;;;;;10.35;1.83;;;14.20;55.20;;;;;;4984851;28;20060;-53
2022/11/25 13:07:21;;;;;;;12.37;2.00;;;14.30;55.50;;;;;;4966955;28;20422;-52